createdAt,value
2023-05-05T00:00:38.022Z,63.82
2023-05-05T00:02:40.813Z,63.45
2023-05-05T00:04:43.377Z,62.86
2023-05-05T00:06:45.784Z,62.62
2023-05-05T00:08:47.974Z,62.63
2023-05-05T00:10:51.799Z,63.33
2023-05-05T00:12:54.247Z,63.06
2023-05-05T00:14:56.531Z,63.17
2023-05-05T00:16:59.486Z,62.54
2023-05-05T00:19:01.968Z,62.54
2023-05-05T00:21:05.091Z,61.86
2023-05-05T00:23:07.736Z,62.95
2023-05-05T00:25:10.373Z,62.57
2023-05-05T00:27:12.648Z,63.39
2023-05-05T00:29:14.872Z,64.70
2023-05-05T00:31:17.380Z,66.35
2023-05-05T00:33:20.344Z,66.95
2023-05-05T00:35:22.813Z,66.55
2023-05-05T00:37:25.935Z,67.31
2023-05-05T00:39:28.285Z,66.85
2023-05-05T00:41:30.910Z,66.07
2023-05-05T00:43:33.811Z,65.83
2023-05-05T00:45:38.215Z,66.04
2023-05-05T00:47:43.939Z,66.63
2023-05-05T00:49:46.429Z,66.98
2023-05-05T00:51:49.169Z,66.81
2023-05-05T00:53:51.736Z,65.83
2023-05-05T00:55:53.956Z,66.05
2023-05-05T00:57:58.749Z,66.19
2023-05-05T01:00:03.107Z,65.67
2023-05-05T01:02:05.644Z,65.37
2023-05-05T01:04:08.291Z,65.59
2023-05-05T01:06:37.507Z,65.14
2023-05-05T01:09:15.201Z,65.39
2023-05-05T01:11:26.724Z,65.30
2023-05-05T01:13:48.127Z,65.99
2023-05-05T01:15:59.179Z,67.57
2023-05-05T01:18:30.990Z,67.85
2023-05-05T01:20:59.530Z,68.12
2023-05-05T01:23:07.352Z,67.50
2023-05-05T01:25:34.345Z,67.27
2023-05-05T01:27:50.380Z,67.54
2023-05-05T01:30:24.887Z,67.65
2023-05-05T01:32:30.396Z,66.85
2023-05-05T01:34:37.534Z,66.44
2023-05-05T01:36:42.509Z,66.88
2023-05-05T01:38:46.809Z,67.04
2023-05-05T01:40:55.018Z,66.85
2023-05-05T01:43:01.080Z,67.21
2023-05-05T01:45:06.873Z,66.46
2023-05-05T01:47:13.466Z,65.89
2023-05-05T01:49:17.211Z,65.97
2023-05-05T01:51:22.131Z,65.69
2023-05-05T01:53:25.878Z,65.27
2023-05-05T01:55:29.793Z,65.91
2023-05-05T01:57:33.633Z,65.43
2023-05-05T01:59:37.318Z,65.89
2023-05-05T02:01:46.275Z,65.61
2023-05-05T02:03:51.764Z,66.21
2023-05-05T02:05:55.087Z,66.96
2023-05-05T02:08:00.312Z,67.55
2023-05-05T02:10:05.601Z,68.41
2023-05-05T02:12:09.290Z,69.01
2023-05-05T02:14:12.762Z,69.55
2023-05-05T02:16:18.247Z,68.83
2023-05-05T02:18:23.248Z,68.68
2023-05-05T02:20:27.819Z,68.76
2023-05-05T02:22:31.727Z,68.67
2023-05-05T02:24:34.409Z,69.59
2023-05-05T02:26:40.239Z,69.66
2023-05-05T02:28:51.981Z,69.92
2023-05-05T02:30:59.772Z,69.76
2023-05-05T02:33:09.648Z,70.56
2023-05-05T02:35:19.410Z,70.11
2023-05-05T02:37:27.725Z,69.73
2023-05-05T02:39:37.390Z,70.02
2023-05-05T02:41:49.095Z,69.87
2023-05-05T02:44:03.951Z,69.52
2023-05-05T02:46:08.385Z,69.53
2023-05-05T02:48:13.484Z,70.28
2023-05-05T02:50:16.011Z,70.35
2023-05-05T02:52:27.229Z,69.76
2023-05-05T02:54:31.991Z,68.64
2023-05-05T02:56:51.926Z,68.34
2023-05-05T02:59:16.546Z,68.13
2023-05-05T03:01:52.848Z,67.64
2023-05-05T03:04:14.852Z,68.76
2023-05-05T03:06:27.512Z,69.45
2023-05-05T03:08:55.126Z,69.20
2023-05-05T03:11:15.089Z,68.17
2023-05-05T03:13:20.897Z,68.12
2023-05-05T03:15:28.492Z,68.57
2023-05-05T03:17:33.191Z,68.37
2023-05-05T03:19:38.311Z,68.03
2023-05-05T03:21:41.270Z,67.38
2023-05-05T03:23:43.671Z,66.90
2023-05-05T03:25:53.524Z,66.82
2023-05-05T03:28:09.290Z,66.08
2023-05-05T03:30:12.853Z,65.85
2023-05-05T03:32:24.050Z,65.96
2023-05-05T03:34:29.584Z,66.04
2023-05-05T03:36:33.491Z,66.29
2023-05-05T03:38:36.289Z,67.03
2023-05-05T03:40:44.049Z,66.63
2023-05-05T03:42:51.286Z,66.52
2023-05-05T03:44:54.311Z,66.15
2023-05-05T03:46:58.434Z,66.46
2023-05-05T03:49:01.527Z,65.85
2023-05-05T03:51:04.480Z,66.16
2023-05-05T03:53:09.160Z,65.89
2023-05-05T03:55:12.113Z,66.54
2023-05-05T03:57:14.702Z,66.59
2023-05-05T03:59:17.809Z,66.42
2023-05-05T04:01:20.879Z,66.67
2023-05-05T04:03:23.556Z,66.50
2023-05-05T04:05:26.551Z,66.50
2023-05-05T04:07:29.987Z,65.90
2023-05-05T04:09:32.427Z,66.68
2023-05-05T04:11:34.844Z,66.41
2023-05-05T04:13:38.062Z,66.61
2023-05-05T04:15:47.561Z,66.84
2023-05-05T04:17:51.752Z,66.16
2023-05-05T04:19:55.909Z,66.50
2023-05-05T04:21:58.448Z,66.14
2023-05-05T04:24:01.275Z,66.06
2023-05-05T04:26:03.912Z,66.39
2023-05-05T04:28:06.511Z,66.76
2023-05-05T04:30:10.103Z,67.15
2023-05-05T04:32:15.424Z,66.80
2023-05-05T04:34:19.279Z,66.93
2023-05-05T04:36:22.134Z,66.05
2023-05-05T04:38:25.089Z,67.00
2023-05-05T04:40:27.986Z,67.10
2023-05-05T04:42:32.900Z,66.92
2023-05-05T04:44:36.060Z,66.43
2023-05-05T04:46:39.202Z,66.29
2023-05-05T04:48:41.476Z,66.12
2023-05-05T04:50:43.717Z,66.49
2023-05-05T04:52:46.381Z,66.13
2023-05-05T04:54:49.031Z,66.23
2023-05-05T04:56:52.594Z,65.82
2023-05-05T04:58:55.469Z,65.81
2023-05-05T05:00:59.033Z,66.07
2023-05-05T05:03:01.972Z,65.73
2023-05-05T05:05:04.980Z,65.25
2023-05-05T05:07:07.762Z,65.42
2023-05-05T05:09:10.258Z,64.62
2023-05-05T05:11:13.485Z,63.29
2023-05-05T05:13:16.213Z,64.10
2023-05-05T05:15:19.028Z,63.81
2023-05-05T05:17:23.334Z,63.48
2023-05-05T05:19:25.653Z,63.27
2023-05-05T05:21:28.803Z,63.17
2023-05-05T05:23:31.712Z,63.01
2023-05-05T05:25:34.317Z,61.86
2023-05-05T05:27:36.885Z,60.63
2023-05-05T05:29:39.780Z,61.09
2023-05-05T05:31:44.618Z,59.21
2023-05-05T05:33:49.851Z,58.63
2023-05-05T05:35:55.304Z,59.09
2023-05-05T05:37:57.567Z,59.16
2023-05-05T05:40:00.710Z,58.61
2023-05-05T05:42:05.415Z,58.87
2023-05-05T05:44:08.196Z,58.64
2023-05-05T05:46:11.199Z,57.56
2023-05-05T05:48:15.001Z,58.60
2023-05-05T05:50:17.750Z,57.18
2023-05-05T05:52:20.842Z,56.87
2023-05-05T05:54:24.013Z,55.78
2023-05-05T05:56:29.200Z,56.56
2023-05-05T05:58:34.338Z,54.56
2023-05-05T06:00:36.727Z,52.81
2023-05-05T06:02:43.874Z,51.89
2023-05-05T06:04:50.385Z,52.67
2023-05-05T06:06:53.476Z,52.56
2023-05-05T06:08:55.808Z,51.98
2023-05-05T06:10:58.377Z,51.37
2023-05-05T06:13:00.967Z,52.33
2023-05-05T06:15:04.411Z,51.40
2023-05-05T06:17:06.676Z,50.59
2023-05-05T06:19:10.921Z,52.00
2023-05-05T06:21:14.305Z,49.75
2023-05-05T06:23:16.667Z,49.71
2023-05-05T06:25:24.442Z,49.66
2023-05-05T06:27:28.049Z,49.48
2023-05-05T06:29:30.662Z,47.73
2023-05-05T06:31:33.057Z,45.77
2023-05-05T06:33:35.987Z,47.06
2023-05-05T06:35:38.383Z,47.57
2023-05-05T06:37:40.756Z,47.04
2023-05-05T06:39:43.444Z,44.96
2023-05-05T06:41:45.754Z,46.18
2023-05-05T06:43:48.536Z,44.75
2023-05-05T06:45:51.076Z,44.94
2023-05-05T06:47:53.432Z,45.17
2023-05-05T06:49:55.761Z,45.47
2023-05-05T06:51:58.180Z,44.05
2023-05-05T06:54:00.572Z,43.45
2023-05-05T06:56:03.572Z,44.99
2023-05-05T06:58:06.146Z,44.23
2023-05-05T07:00:11.792Z,44.09
2023-05-05T07:02:14.450Z,43.27
2023-05-05T07:04:16.887Z,43.63
2023-05-05T07:06:20.054Z,43.73
2023-05-05T07:08:22.582Z,42.20
2023-05-05T07:10:26.812Z,41.40
2023-05-05T07:12:33.865Z,43.16
2023-05-05T07:14:36.795Z,43.08
2023-05-05T07:16:39.459Z,42.65
2023-05-05T07:18:41.874Z,42.31
2023-05-05T07:20:45.005Z,41.63
2023-05-05T07:22:47.673Z,41.30
2023-05-05T07:24:51.677Z,42.40
2023-05-05T07:26:54.118Z,41.73
2023-05-05T07:28:58.279Z,40.50
2023-05-05T07:31:00.703Z,41.06
2023-05-05T07:33:04.322Z,40.02
2023-05-05T07:35:07.488Z,38.75
2023-05-05T07:37:09.817Z,40.44
2023-05-05T07:39:15.442Z,38.96
2023-05-05T07:41:18.909Z,39.76
2023-05-05T07:43:21.716Z,36.69
2023-05-05T07:45:24.715Z,39.51
2023-05-05T07:47:27.227Z,40.38
2023-05-05T07:49:30.050Z,38.83
2023-05-05T07:51:34.497Z,38.64
2023-05-05T07:53:37.717Z,38.16
2023-05-05T07:55:40.219Z,37.10
2023-05-05T07:57:43.288Z,37.96
2023-05-05T07:59:45.991Z,37.17
2023-05-05T08:01:48.317Z,38.35
2023-05-05T08:03:50.851Z,38.26
2023-05-05T08:05:55.147Z,38.09
2023-05-05T08:07:57.559Z,36.74
2023-05-05T08:10:00.208Z,36.54
2023-05-05T08:12:03.106Z,37.11
2023-05-05T08:14:05.672Z,35.34
2023-05-05T08:16:08.462Z,36.19
2023-05-05T08:18:11.490Z,35.90
2023-05-05T08:20:14.717Z,36.47
2023-05-05T08:22:17.211Z,35.79
2023-05-05T08:24:19.728Z,36.82
2023-05-05T08:26:23.360Z,36.81
2023-05-05T08:28:25.647Z,37.43
2023-05-05T08:30:28.228Z,38.11
2023-05-05T08:32:30.693Z,35.92
2023-05-05T08:34:33.164Z,35.64
2023-05-05T08:36:36.061Z,36.63
2023-05-05T08:38:38.531Z,36.91
2023-05-05T08:40:41.811Z,37.41
2023-05-05T08:42:47.411Z,37.65
2023-05-05T08:44:50.413Z,37.49
2023-05-05T08:46:53.871Z,35.33
2023-05-05T08:48:57.300Z,34.42
2023-05-05T08:51:02.618Z,33.70
2023-05-05T08:53:17.424Z,34.77
2023-05-05T08:55:27.729Z,34.23
2023-05-05T08:58:03.501Z,36.65
2023-05-05T09:00:11.148Z,33.32
2023-05-05T09:02:15.346Z,30.84
2023-05-05T09:04:19.588Z,32.52
2023-05-05T09:06:23.926Z,28.95
2023-05-05T09:08:27.899Z,30.40
2023-05-05T09:10:31.256Z,29.96
2023-05-05T09:12:33.609Z,27.41
2023-05-05T09:14:36.556Z,27.77
2023-05-05T09:16:44.762Z,28.93
2023-05-05T09:18:47.582Z,28.62
2023-05-05T09:20:50.273Z,28.55
2023-05-05T09:22:53.647Z,27.49
2023-05-05T09:24:57.091Z,27.13
2023-05-05T09:27:01.403Z,28.79
2023-05-05T09:29:05.094Z,26.76
2023-05-05T09:31:16.165Z,27.43
2023-05-05T09:33:31.434Z,28.06
2023-05-05T09:35:53.927Z,28.78
2023-05-05T09:37:57.521Z,28.07
2023-05-05T09:40:03.928Z,28.97
2023-05-05T09:42:06.507Z,29.60
2023-05-05T09:44:09.906Z,28.31
2023-05-05T09:46:12.828Z,27.62
2023-05-05T09:48:47.794Z,25.34
2023-05-05T09:50:50.617Z,26.87
2023-05-05T09:53:03.879Z,26.94
2023-05-05T09:55:08.529Z,26.90
2023-05-05T09:57:27.753Z,27.38
2023-05-05T09:59:30.228Z,28.58
2023-05-05T10:01:32.704Z,28.91
2023-05-05T10:03:52.060Z,27.46
2023-05-05T10:05:56.777Z,26.50
2023-05-05T10:08:13.930Z,26.65
2023-05-05T10:10:18.795Z,26.55
2023-05-05T10:12:21.578Z,29.35
2023-05-05T10:14:26.228Z,28.30
2023-05-05T10:16:33.254Z,29.68
2023-05-05T10:18:36.063Z,28.71
2023-05-05T10:20:39.211Z,29.04
2023-05-05T10:22:52.694Z,27.69
2023-05-05T10:25:09.759Z,27.03
2023-05-05T10:27:20.410Z,27.52
2023-05-05T10:29:47.282Z,27.06
2023-05-05T10:32:18.817Z,27.79
2023-05-05T10:34:38.915Z,27.33
2023-05-05T10:36:42.081Z,26.60
2023-05-05T10:38:46.830Z,25.83
2023-05-05T10:40:50.787Z,25.69
2023-05-05T10:42:54.730Z,27.07
2023-05-05T10:44:57.207Z,26.22
2023-05-05T10:47:01.232Z,25.68
2023-05-05T10:49:16.582Z,25.70
2023-05-05T10:51:48.266Z,25.52
2023-05-05T10:54:06.664Z,25.97
2023-05-05T10:56:18.038Z,24.00
2023-05-05T10:58:43.720Z,25.01
2023-05-05T11:00:54.158Z,24.07
2023-05-05T11:03:18.742Z,23.38
2023-05-05T11:05:23.880Z,24.62
2023-05-05T11:07:28.093Z,25.91
2023-05-05T11:09:30.909Z,24.25
2023-05-05T11:12:10.213Z,23.82
2023-05-05T11:14:25.353Z,25.24
2023-05-05T11:16:50.934Z,23.53
2023-05-05T11:18:53.465Z,23.33
2023-05-05T11:20:58.837Z,25.35
2023-05-05T11:23:04.802Z,24.31
2023-05-05T11:25:44.836Z,23.36
2023-05-05T11:28:08.800Z,23.57
2023-05-05T11:30:12.379Z,23.99
2023-05-05T11:32:18.396Z,24.29
2023-05-05T11:34:28.574Z,24.71
2023-05-05T11:36:41.715Z,25.22
2023-05-05T11:38:49.841Z,24.38
2023-05-05T11:41:02.852Z,22.67
2023-05-05T11:43:07.777Z,22.17
2023-05-05T11:45:22.092Z,23.53
2023-05-05T11:47:27.455Z,23.77
2023-05-05T11:49:34.197Z,23.60
2023-05-05T11:51:38.824Z,24.02
2023-05-05T11:53:46.476Z,23.03
2023-05-05T11:55:49.052Z,20.96
2023-05-05T11:57:52.232Z,21.49
2023-05-05T11:59:55.875Z,20.80
2023-05-05T12:01:59.560Z,21.29
2023-05-05T12:04:02.462Z,20.48
2023-05-05T12:06:07.255Z,20.56
2023-05-05T12:08:10.669Z,22.69
2023-05-05T12:10:13.623Z,22.06
2023-05-05T12:12:17.559Z,22.80
2023-05-05T12:14:21.239Z,23.67
2023-05-05T12:16:24.292Z,23.76
2023-05-05T12:18:26.851Z,23.42
2023-05-05T12:20:32.301Z,22.96
2023-05-05T12:22:34.969Z,23.43
2023-05-05T12:24:38.116Z,21.07
2023-05-05T12:26:40.881Z,21.66
2023-05-05T12:28:46.928Z,20.80
2023-05-05T12:31:00.246Z,21.72
2023-05-05T12:33:07.817Z,20.79
2023-05-05T12:35:10.949Z,21.43
2023-05-05T12:37:13.776Z,21.99
2023-05-05T12:39:16.107Z,21.70
2023-05-05T12:41:20.214Z,21.51
2023-05-05T12:43:27.203Z,21.89
2023-05-05T12:45:29.860Z,22.24
2023-05-05T12:47:33.477Z,21.76
2023-05-05T12:49:50.421Z,21.05
2023-05-05T12:51:57.208Z,20.49
2023-05-05T12:54:03.881Z,20.72
2023-05-05T12:56:06.301Z,21.06
2023-05-05T12:58:08.943Z,23.07
2023-05-05T13:00:18.255Z,21.37
2023-05-05T13:02:21.297Z,20.54
2023-05-05T13:04:26.419Z,22.54
2023-05-05T13:06:28.711Z,21.70
2023-05-05T13:08:44.542Z,21.16
2023-05-05T13:10:59.568Z,22.39
2023-05-05T13:13:02.853Z,22.77
2023-05-05T13:15:06.389Z,23.05
2023-05-05T13:17:09.446Z,23.69
2023-05-05T13:19:12.322Z,23.43
2023-05-05T13:21:15.109Z,22.85
2023-05-05T13:23:17.319Z,23.73
2023-05-05T13:25:19.617Z,21.60
2023-05-05T13:27:22.637Z,20.99
2023-05-05T13:29:29.544Z,21.25
2023-05-05T13:31:33.840Z,21.24
2023-05-05T13:33:36.773Z,22.30
2023-05-05T13:35:39.104Z,21.11
2023-05-05T13:37:42.736Z,22.41
2023-05-05T13:39:45.487Z,22.23
2023-05-05T13:41:48.209Z,22.53
2023-05-05T13:43:51.734Z,22.44
2023-05-05T13:45:55.956Z,22.36
2023-05-05T13:48:03.403Z,21.16
2023-05-05T13:50:06.757Z,21.49
2023-05-05T13:52:09.243Z,21.01
2023-05-05T13:54:11.946Z,21.46
2023-05-05T13:56:14.496Z,21.38
2023-05-05T13:58:17.964Z,21.24
2023-05-05T14:00:20.769Z,21.98
2023-05-05T14:02:23.581Z,22.95
2023-05-05T14:04:26.186Z,22.11
2023-05-05T14:06:28.552Z,23.18
2023-05-05T14:08:31.066Z,22.56
2023-05-05T14:10:33.485Z,21.87
2023-05-05T14:12:36.129Z,21.09
2023-05-05T14:14:38.387Z,21.79
2023-05-05T14:16:41.321Z,21.76
2023-05-05T14:18:43.835Z,21.94
2023-05-05T14:20:46.087Z,20.77
2023-05-05T14:22:49.373Z,21.65
2023-05-05T14:24:52.050Z,21.70
2023-05-05T14:26:54.745Z,22.31
2023-05-05T14:28:57.356Z,22.40
2023-05-05T14:30:59.926Z,22.90
2023-05-05T14:33:02.327Z,21.88
2023-05-05T14:35:05.393Z,22.22
2023-05-05T14:37:09.193Z,21.40
2023-05-05T14:39:12.041Z,21.01
2023-05-05T14:41:14.606Z,21.98
2023-05-05T14:43:16.805Z,22.48
2023-05-05T14:45:19.165Z,23.45
2023-05-05T14:47:21.958Z,22.16
2023-05-05T14:49:24.481Z,22.03
2023-05-05T14:51:26.812Z,21.73
2023-05-05T14:53:29.148Z,21.52
2023-05-05T14:55:31.556Z,22.20
2023-05-05T14:57:33.980Z,21.29
2023-05-05T14:59:36.576Z,21.54
2023-05-05T15:01:39.087Z,21.80
2023-05-05T15:03:41.623Z,22.17
2023-05-05T15:05:44.213Z,22.13
2023-05-05T15:07:46.898Z,22.55
2023-05-05T15:09:49.533Z,22.59
2023-05-05T15:11:52.080Z,22.02
2023-05-05T15:13:54.663Z,21.20
2023-05-05T15:15:57.415Z,21.90
2023-05-05T15:18:00.112Z,22.65
2023-05-05T15:20:02.593Z,23.01
2023-05-05T15:22:05.533Z,21.65
2023-05-05T15:24:07.868Z,21.82
2023-05-05T15:26:10.449Z,23.70
2023-05-05T15:28:12.920Z,24.84
2023-05-05T15:30:16.068Z,24.42
2023-05-05T15:32:18.880Z,24.34
2023-05-05T15:34:21.682Z,23.55
2023-05-05T15:36:25.119Z,22.64
2023-05-05T15:38:29.381Z,22.92
2023-05-05T15:40:31.903Z,24.61
2023-05-05T15:42:34.768Z,23.78
2023-05-05T15:44:37.442Z,24.40
2023-05-05T15:46:40.003Z,24.68
2023-05-05T15:48:42.253Z,25.05
2023-05-05T15:50:44.749Z,23.05
2023-05-05T15:52:49.825Z,23.31
2023-05-05T15:54:53.112Z,24.46
2023-05-05T15:56:55.647Z,23.18
2023-05-05T15:58:58.337Z,25.10
2023-05-05T16:01:01.241Z,25.16
2023-05-05T16:03:03.906Z,25.09
2023-05-05T16:05:07.178Z,24.42
2023-05-05T16:07:09.877Z,24.90
2023-05-05T16:09:12.418Z,24.59
2023-05-05T16:11:15.811Z,25.21
2023-05-05T16:13:18.796Z,25.90
2023-05-05T16:15:21.872Z,25.85
2023-05-05T16:17:24.201Z,26.71
2023-05-05T16:19:30.122Z,26.43
2023-05-05T16:21:33.872Z,26.96
2023-05-05T16:23:36.177Z,27.70
2023-05-05T16:25:38.876Z,27.70
2023-05-05T16:27:41.101Z,25.29
2023-05-05T16:29:43.782Z,26.55
2023-05-05T16:31:46.301Z,26.72
2023-05-05T16:33:49.101Z,27.37
2023-05-05T16:35:51.536Z,26.64
2023-05-05T16:37:54.223Z,27.17
2023-05-05T16:39:56.495Z,28.01
2023-05-05T16:41:58.979Z,27.43
2023-05-05T16:44:02.171Z,28.29
2023-05-05T16:46:04.908Z,27.15
2023-05-05T16:48:09.056Z,26.97
2023-05-05T16:50:11.904Z,28.38
2023-05-05T16:52:15.226Z,27.79
2023-05-05T16:54:17.678Z,27.32
2023-05-05T16:56:20.301Z,28.45
2023-05-05T16:58:23.490Z,28.62
2023-05-05T17:00:26.002Z,28.92
2023-05-05T17:02:28.704Z,28.94
2023-05-05T17:04:31.248Z,27.80
2023-05-05T17:06:33.665Z,29.44
2023-05-05T17:08:36.019Z,29.57
2023-05-05T17:10:38.301Z,29.50
2023-05-05T17:12:41.217Z,29.86
2023-05-05T17:14:45.258Z,29.98
2023-05-05T17:16:48.074Z,29.45
2023-05-05T17:18:50.311Z,29.85
2023-05-05T17:20:52.745Z,30.59
2023-05-05T17:22:56.357Z,31.91
2023-05-05T17:24:59.198Z,33.11
2023-05-05T17:27:02.283Z,33.37
2023-05-05T17:29:04.722Z,33.96
2023-05-05T17:31:07.081Z,33.80
2023-05-05T17:33:09.796Z,34.48
2023-05-05T17:35:12.539Z,33.99
2023-05-05T17:37:14.960Z,33.47
2023-05-05T17:39:17.901Z,35.08
2023-05-05T17:41:20.430Z,34.79
2023-05-05T17:43:22.954Z,33.77
2023-05-05T17:45:25.618Z,32.46
2023-05-05T17:47:28.341Z,33.44
2023-05-05T17:49:31.157Z,34.15
2023-05-05T17:51:33.521Z,33.98
2023-05-05T17:53:36.168Z,34.94
2023-05-05T17:55:38.508Z,34.91
2023-05-05T17:57:40.950Z,35.53
2023-05-05T17:59:43.421Z,36.82
2023-05-05T18:01:46.162Z,36.89
2023-05-05T18:03:49.280Z,37.05
2023-05-05T18:05:51.851Z,37.32
2023-05-05T18:07:54.380Z,37.82
2023-05-05T18:09:57.287Z,38.62
2023-05-05T18:11:59.721Z,38.65
2023-05-05T18:14:02.314Z,39.05
2023-05-05T18:16:05.678Z,39.41
2023-05-05T18:18:08.390Z,39.48
2023-05-05T18:20:12.001Z,39.66
2023-05-05T18:22:15.277Z,40.06
2023-05-05T18:24:20.378Z,39.94
2023-05-05T18:26:23.433Z,39.51
2023-05-05T18:28:26.259Z,40.74
2023-05-05T18:30:29.066Z,41.46
2023-05-05T18:32:31.936Z,41.19
2023-05-05T18:34:35.312Z,41.55
2023-05-05T18:36:37.790Z,41.49
2023-05-05T18:38:40.626Z,41.37
2023-05-05T18:40:43.559Z,41.44
2023-05-05T18:42:46.598Z,42.57
2023-05-05T18:44:49.483Z,42.70
2023-05-05T18:46:52.044Z,42.30
2023-05-05T18:48:54.954Z,42.36
2023-05-05T18:51:04.551Z,42.41
2023-05-05T18:53:07.883Z,42.55
2023-05-05T18:55:10.818Z,42.39
2023-05-05T18:57:14.400Z,43.00
2023-05-05T18:59:17.304Z,43.21
2023-05-05T19:01:20.748Z,44.04
2023-05-05T19:03:23.659Z,43.91
2023-05-05T19:05:28.272Z,43.48
2023-05-05T19:07:35.485Z,43.63
2023-05-05T19:09:54.276Z,44.18
2023-05-05T19:11:57.108Z,44.34
2023-05-05T19:13:59.806Z,44.12
2023-05-05T19:16:02.975Z,44.82
2023-05-05T19:18:07.536Z,45.00
2023-05-05T19:20:10.723Z,45.44
2023-05-05T19:22:13.616Z,45.89
2023-05-05T19:24:16.433Z,46.82
2023-05-05T19:26:19.031Z,46.42
2023-05-05T19:28:22.072Z,47.04
2023-05-05T19:30:24.847Z,46.95
2023-05-05T19:32:27.899Z,46.76
2023-05-05T19:34:30.382Z,46.57
2023-05-05T19:36:34.069Z,47.72
2023-05-05T19:38:37.617Z,46.68
2023-05-05T19:40:41.388Z,46.29
2023-05-05T19:42:44.422Z,45.58
2023-05-05T19:44:47.411Z,45.79
2023-05-05T19:46:50.360Z,45.11
2023-05-05T19:48:53.230Z,45.41
2023-05-05T19:50:55.916Z,45.28
2023-05-05T19:52:58.499Z,45.45
2023-05-05T19:55:01.373Z,45.42
2023-05-05T19:57:04.387Z,45.16
2023-05-05T19:59:07.047Z,45.20
2023-05-05T20:01:10.404Z,45.63
2023-05-05T20:03:13.563Z,45.46
2023-05-05T20:05:17.913Z,45.96
2023-05-05T20:07:21.254Z,45.71
2023-05-05T20:09:23.738Z,46.50
2023-05-05T20:11:26.450Z,45.99
2023-05-05T20:13:28.988Z,46.14
2023-05-05T20:15:32.741Z,47.00
2023-05-05T20:17:35.757Z,47.35
2023-05-05T20:19:38.611Z,47.89
2023-05-05T20:21:41.412Z,47.43
2023-05-05T20:23:45.814Z,47.25
2023-05-05T20:25:48.404Z,46.96
2023-05-05T20:27:51.133Z,47.49
2023-05-05T20:29:53.917Z,47.30
2023-05-05T20:31:57.199Z,47.53
2023-05-05T20:33:59.750Z,47.95
2023-05-05T20:36:02.222Z,47.58
2023-05-05T20:38:05.018Z,47.11
2023-05-05T20:40:08.613Z,47.39
2023-05-05T20:42:11.329Z,46.68
2023-05-05T20:44:14.029Z,47.53
2023-05-05T20:46:17.166Z,47.78
2023-05-05T20:48:20.169Z,47.37
2023-05-05T20:50:23.468Z,47.39
2023-05-05T20:52:25.998Z,47.25
2023-05-05T20:54:34.679Z,47.28
2023-05-05T20:56:37.227Z,47.88
2023-05-05T20:58:39.550Z,48.59
2023-05-05T21:00:42.704Z,47.36
2023-05-05T21:02:45.463Z,48.22
2023-05-05T21:04:48.473Z,48.14
2023-05-05T21:06:50.964Z,48.30
2023-05-05T21:08:53.472Z,47.81
2023-05-05T21:10:56.328Z,47.85
2023-05-05T21:12:59.028Z,47.64
2023-05-05T21:15:01.819Z,48.11
2023-05-05T21:17:04.243Z,48.52
2023-05-05T21:19:06.951Z,48.59
2023-05-05T21:21:09.452Z,50.67
2023-05-05T21:23:12.035Z,51.44
2023-05-05T21:25:20.263Z,50.96
2023-05-05T21:27:23.182Z,50.59
2023-05-05T21:29:26.293Z,51.22
2023-05-05T21:31:29.307Z,50.86
2023-05-05T21:33:31.782Z,49.79
2023-05-05T21:35:34.376Z,49.62
2023-05-05T21:37:39.844Z,50.98
2023-05-05T21:39:42.828Z,52.42
2023-05-05T21:41:45.564Z,50.82
2023-05-05T21:43:47.976Z,51.67
2023-05-05T21:46:02.541Z,51.30
2023-05-05T21:48:06.589Z,51.62
2023-05-05T21:50:10.499Z,51.14
2023-05-05T21:52:13.258Z,51.39
2023-05-05T21:54:16.084Z,50.89
2023-05-05T21:56:18.276Z,50.31
2023-05-05T21:58:21.071Z,50.41
2023-05-05T22:00:24.078Z,50.65
2023-05-05T22:02:26.590Z,51.24
2023-05-05T22:04:29.662Z,51.23
2023-05-05T22:06:50.500Z,52.22
2023-05-05T22:08:53.311Z,53.55
2023-05-05T22:10:56.104Z,54.03
2023-05-05T22:12:58.525Z,54.10
2023-05-05T22:15:01.360Z,54.88
2023-05-05T22:17:03.842Z,54.73
2023-05-05T22:19:07.315Z,53.18
2023-05-05T22:21:10.266Z,55.89
2023-05-05T22:23:14.344Z,57.98
2023-05-05T22:25:17.162Z,57.06
2023-05-05T22:27:19.488Z,55.17
2023-05-05T22:29:21.794Z,54.16
2023-05-05T22:31:24.568Z,54.42
2023-05-05T22:33:27.538Z,54.04
2023-05-05T22:35:30.020Z,54.70
2023-05-05T22:37:32.459Z,55.65
2023-05-05T22:39:34.949Z,56.59
2023-05-05T22:41:37.884Z,56.51
2023-05-05T22:43:40.391Z,56.48
2023-05-05T22:45:43.917Z,55.79
2023-05-05T22:47:46.573Z,54.97
2023-05-05T22:49:49.041Z,55.07
2023-05-05T22:51:52.227Z,54.96
2023-05-05T22:53:54.754Z,55.02
2023-05-05T22:55:58.693Z,54.01
2023-05-05T22:58:01.234Z,54.67
2023-05-05T23:00:05.297Z,54.97
2023-05-05T23:02:08.147Z,55.22
2023-05-05T23:04:11.002Z,54.87
2023-05-05T23:06:13.552Z,54.83
2023-05-05T23:08:15.897Z,55.29
2023-05-05T23:10:18.608Z,55.97
2023-05-05T23:12:21.154Z,55.73
2023-05-05T23:14:23.404Z,56.43
2023-05-05T23:16:26.165Z,58.27
2023-05-05T23:18:28.577Z,58.92
2023-05-05T23:20:31.064Z,59.42
2023-05-05T23:22:33.364Z,60.04
2023-05-05T23:24:35.839Z,58.86
2023-05-05T23:26:38.139Z,59.72
2023-05-05T23:28:40.551Z,59.31
2023-05-05T23:30:43.366Z,58.39
2023-05-05T23:32:46.258Z,59.48
2023-05-05T23:34:48.865Z,59.15
2023-05-05T23:36:51.346Z,59.87
2023-05-05T23:41:10.558Z,58.00
2023-05-05T23:43:13.249Z,58.37
2023-05-05T23:45:17.532Z,58.13
2023-05-05T23:47:21.360Z,58.92
2023-05-05T23:49:25.236Z,57.79
2023-05-05T23:51:27.621Z,58.16
2023-05-05T23:53:30.396Z,57.38
2023-05-05T23:55:33.025Z,57.13
2023-05-05T23:57:36.389Z,56.40
2023-05-05T23:59:39.637Z,56.40
